createdAt,value
2022-09-02T00:00:12.848Z,9.3
2022-09-02T00:03:12.280Z,9.3
2022-09-02T00:06:11.358Z,9.1
2022-09-02T00:09:11.310Z,9.1
2022-09-02T00:12:11.337Z,9
2022-09-02T00:15:11.316Z,9
2022-09-02T00:18:21.211Z,9
2022-09-02T00:21:11.454Z,9
2022-09-02T00:24:11.402Z,8.9
2022-09-02T00:27:11.342Z,8.9
2022-09-02T00:30:11.417Z,8.8
2022-09-02T00:33:11.323Z,8.8
2022-09-02T00:36:13.052Z,8.8
2022-09-02T00:39:11.308Z,8.8
2022-09-02T00:42:11.323Z,8.8
2022-09-02T00:45:11.303Z,8.8
2022-09-02T00:48:11.396Z,8.8
2022-09-02T00:51:15.314Z,8.8
2022-09-02T00:54:11.294Z,8.8
2022-09-02T00:57:11.282Z,8.8
2022-09-02T01:00:11.528Z,8.6
2022-09-02T01:03:11.308Z,8.6
2022-09-02T01:06:11.342Z,8.6
2022-09-02T01:09:11.292Z,8.5
2022-09-02T01:12:11.353Z,8.5
2022-09-02T01:15:11.323Z,8.5
2022-09-02T01:18:11.315Z,8.5
2022-09-02T01:21:11.313Z,8.5
2022-09-02T01:24:11.323Z,8.5
2022-09-02T01:27:11.313Z,8.4
2022-09-02T01:30:11.380Z,8.5
2022-09-02T01:33:11.819Z,8.5
2022-09-02T01:36:11.293Z,8.4
2022-09-02T01:39:11.355Z,8.4
2022-09-02T01:42:11.348Z,8.4
2022-09-02T01:45:11.292Z,8.4
2022-09-02T01:48:11.268Z,8.4
2022-09-02T01:51:11.299Z,8.4
2022-09-02T01:54:11.309Z,8.4
2022-09-02T01:57:11.373Z,8.4
2022-09-02T02:00:11.919Z,8.4
2022-09-02T02:03:12.334Z,8.4
2022-09-02T02:06:11.257Z,8.4
2022-09-02T02:09:11.324Z,8.4
2022-09-02T02:12:11.377Z,8.4
2022-09-02T02:15:11.315Z,8.4
2022-09-02T02:18:11.302Z,8.4
2022-09-02T02:21:11.330Z,8.4
2022-09-02T02:24:11.267Z,8.4
2022-09-02T02:27:11.316Z,8.3
2022-09-02T02:30:11.265Z,8.3
2022-09-02T02:33:11.300Z,8.3
2022-09-02T02:36:11.295Z,8.1
2022-09-02T02:39:11.425Z,8.1
2022-09-02T02:42:11.347Z,8.1
2022-09-02T02:45:17.037Z,8.1
2022-09-02T02:48:11.299Z,8.1
2022-09-02T02:51:11.328Z,8.1
2022-09-02T02:54:11.305Z,8.1
2022-09-02T02:57:13.975Z,8.1
2022-09-02T03:00:11.444Z,8.1
2022-09-02T03:03:11.943Z,8.1
2022-09-02T03:06:11.297Z,8.1
2022-09-02T03:09:11.318Z,8.1
2022-09-02T03:12:11.350Z,8.1
2022-09-02T03:15:11.342Z,8
2022-09-02T03:18:11.410Z,8
2022-09-02T03:21:11.260Z,8
2022-09-02T03:24:11.275Z,8
2022-09-02T03:27:11.307Z,8
2022-09-02T03:30:11.443Z,8
2022-09-02T03:33:15.107Z,8
2022-09-02T03:36:11.355Z,8
2022-09-02T03:39:16.102Z,8
2022-09-02T03:42:26.783Z,8
2022-09-02T03:45:11.353Z,8
2022-09-02T03:48:11.312Z,8
2022-09-02T03:51:11.436Z,8
2022-09-02T03:54:11.311Z,8
2022-09-02T03:57:12.685Z,8
2022-09-02T04:00:11.403Z,8
2022-09-02T04:03:12.284Z,8
2022-09-02T04:06:11.385Z,8.1
2022-09-02T04:09:11.377Z,8.1
2022-09-02T04:12:11.302Z,8.1
2022-09-02T04:15:11.357Z,8.1
2022-09-02T04:18:11.290Z,8.1
2022-09-02T04:21:11.312Z,8.3
2022-09-02T04:24:11.359Z,8.3
2022-09-02T04:27:15.264Z,8.1
2022-09-02T04:30:11.471Z,8.3
2022-09-02T04:33:11.360Z,8.3
2022-09-02T04:36:19.224Z,8.3
2022-09-02T04:39:11.444Z,8.3
2022-09-02T04:42:11.385Z,8.4
2022-09-02T04:45:11.721Z,8.4
2022-09-02T04:48:11.386Z,8.4
2022-09-02T04:51:11.387Z,8.5
2022-09-02T04:54:11.372Z,8.5
2022-09-02T04:57:12.720Z,8.5
2022-09-02T05:00:11.416Z,8.6
2022-09-02T05:03:11.600Z,8.6
2022-09-02T05:06:11.387Z,8.8
2022-09-02T05:09:11.434Z,9
2022-09-02T05:12:11.401Z,9.1
2022-09-02T05:15:11.981Z,9.3
2022-09-02T05:18:14.503Z,9.4
2022-09-02T05:21:11.330Z,9.6
2022-09-02T05:24:11.426Z,9.9
2022-09-02T05:27:11.323Z,10
2022-09-02T05:30:11.771Z,10.3
2022-09-02T05:33:25.769Z,10.4
2022-09-02T05:36:11.432Z,10.6
2022-09-02T05:39:11.383Z,11
2022-09-02T05:42:11.331Z,13.6
2022-09-02T05:45:11.403Z,16.8
2022-09-02T05:48:11.302Z,18.9
2022-09-02T05:51:11.358Z,20.6
2022-09-02T05:54:11.375Z,22.1
2022-09-02T05:57:11.488Z,23.5
2022-09-02T06:00:11.500Z,24.7
2022-09-02T06:03:12.012Z,25.8
2022-09-02T06:06:17.629Z,26.8
2022-09-02T06:09:11.378Z,27.6
2022-09-02T06:12:11.303Z,28.3
2022-09-02T06:15:11.408Z,29
2022-09-02T06:18:15.562Z,29.8
2022-09-02T06:21:11.473Z,30.5
2022-09-02T06:24:11.443Z,31.2
2022-09-02T06:27:11.420Z,31.8
2022-09-02T06:30:11.471Z,32.2
2022-09-02T06:33:11.324Z,32.6
2022-09-02T06:36:11.388Z,33.1
2022-09-02T06:39:11.438Z,33.5
2022-09-02T06:42:11.397Z,33.9
2022-09-02T06:45:11.364Z,34.2
2022-09-02T06:48:15.983Z,34.7
2022-09-02T06:51:11.392Z,35
2022-09-02T06:54:13.980Z,35.4
2022-09-02T06:57:11.374Z,35.5
2022-09-02T07:00:13.523Z,35.9
2022-09-02T07:03:11.450Z,36.2
2022-09-02T07:06:11.431Z,36.4
2022-09-02T07:09:11.458Z,36.5
2022-09-02T07:12:16.217Z,36.7
2022-09-02T07:15:11.521Z,36.9
2022-09-02T07:18:11.378Z,36.7
2022-09-02T07:21:13.910Z,36.6
2022-09-02T07:24:11.388Z,36.7
2022-09-02T07:27:11.373Z,36.9
2022-09-02T07:30:11.448Z,37.1
2022-09-02T07:33:11.383Z,37.1
2022-09-02T07:36:17.231Z,37.2
2022-09-02T07:39:11.391Z,37.5
2022-09-02T07:42:14.027Z,37.5
2022-09-02T07:45:11.371Z,37.6
2022-09-02T07:48:11.390Z,38
2022-09-02T07:51:11.329Z,38.5
2022-09-02T07:54:11.449Z,38.6
2022-09-02T07:57:11.635Z,38.7
2022-09-02T08:00:11.519Z,38.9
2022-09-02T08:03:12.138Z,39.2
2022-09-02T08:06:11.408Z,39.5
2022-09-02T08:09:11.378Z,39.6
2022-09-02T08:12:11.359Z,40.1
2022-09-02T08:15:11.541Z,40.4
2022-09-02T08:18:24.274Z,40.6
2022-09-02T08:21:11.406Z,40.9
2022-09-02T08:24:11.831Z,41.2
2022-09-02T08:27:11.515Z,41.4
2022-09-02T08:30:11.419Z,41.4
2022-09-02T08:33:11.351Z,41.2
2022-09-02T08:36:11.400Z,41.2
2022-09-02T08:39:11.398Z,41.9
2022-09-02T08:45:11.406Z,42.6
2022-09-02T08:48:11.482Z,42.7
2022-09-02T08:51:11.404Z,42.7
2022-09-02T08:54:11.350Z,42.7
2022-09-02T08:57:11.372Z,42.7
2022-09-02T09:00:13.825Z,43
2022-09-02T09:03:11.580Z,42.9
2022-09-02T09:06:11.440Z,42.9
2022-09-02T09:09:11.365Z,43
2022-09-02T09:12:11.388Z,42.7
2022-09-02T09:15:11.371Z,42.6
2022-09-02T09:18:11.407Z,42.9
2022-09-02T09:21:15.273Z,43.3
2022-09-02T09:24:11.374Z,43.5
2022-09-02T09:27:12.498Z,43.5
2022-09-02T09:30:17.775Z,43.6
2022-09-02T09:33:11.412Z,43.9
2022-09-02T09:36:15.766Z,44.1
2022-09-02T09:39:11.586Z,44.2
2022-09-02T09:42:11.403Z,44.2
2022-09-02T09:45:11.508Z,44.1
2022-09-02T09:48:11.610Z,44.1
2022-09-02T09:51:11.404Z,44.1
2022-09-02T09:54:11.486Z,44
2022-09-02T09:57:18.255Z,43.7
2022-09-02T10:00:11.655Z,43.6
2022-09-02T10:03:11.428Z,43.7
2022-09-02T10:06:11.315Z,43.7
2022-09-02T10:09:11.425Z,44
2022-09-02T10:12:11.381Z,44.1
2022-09-02T10:15:14.767Z,44.4
2022-09-02T10:18:11.363Z,44.4
2022-09-02T10:21:27.272Z,44.4
2022-09-02T10:24:13.948Z,44.5
2022-09-02T10:27:11.365Z,44.5
2022-09-02T10:30:11.422Z,44.5
2022-09-02T10:33:11.334Z,44.4
2022-09-02T10:36:19.026Z,44.6
2022-09-02T10:39:12.883Z,44.6
2022-09-02T10:42:11.495Z,44.6
2022-09-02T10:45:11.459Z,44.9
2022-09-02T10:48:11.343Z,45.1
2022-09-02T10:51:11.345Z,45.2
2022-09-02T10:54:12.632Z,45.4
2022-09-02T10:57:12.886Z,45.2
2022-09-02T11:00:11.458Z,45.4
2022-09-02T11:03:11.924Z,45.4
2022-09-02T11:06:11.490Z,45.6
2022-09-02T11:09:11.424Z,45.6
2022-09-02T11:12:11.419Z,44.7
2022-09-02T11:15:11.668Z,44.7
2022-09-02T11:18:11.938Z,44.5
2022-09-02T11:21:11.519Z,40.4
2022-09-02T11:24:13.549Z,39.4
2022-09-02T11:27:46.312Z,41.7
2022-09-02T11:30:13.235Z,43.3
2022-09-02T11:33:11.602Z,44.4
2022-09-02T11:36:12.014Z,44.9
2022-09-02T11:39:11.417Z,45
2022-09-02T11:42:14.912Z,45.2
2022-09-02T11:45:11.615Z,45.4
2022-09-02T11:48:13.247Z,45.5
2022-09-02T11:51:12.208Z,45.9
2022-09-02T11:54:17.703Z,46.1
2022-09-02T11:57:11.812Z,46.1
2022-09-02T12:00:11.790Z,44.9
2022-09-02T12:06:13.835Z,41.9
2022-09-02T12:09:11.975Z,42.9
2022-09-02T12:12:12.025Z,41.4
2022-09-02T12:15:11.859Z,43.9
2022-09-02T12:18:11.365Z,45.5
2022-09-02T12:21:23.098Z,46.5
2022-09-02T12:24:11.469Z,47.2
2022-09-02T12:27:11.392Z,47.5
2022-09-02T12:30:11.718Z,47.9
2022-09-02T12:33:11.802Z,48.1
2022-09-02T12:36:12.548Z,45.8
2022-09-02T12:39:16.451Z,41.9
2022-09-02T12:42:11.555Z,38.4
2022-09-02T12:45:14.077Z,37.7
2022-09-02T12:48:12.283Z,40.9
2022-09-02T12:51:11.361Z,37.7
2022-09-02T12:54:11.379Z,39.7
2022-09-02T12:57:11.335Z,41
2022-09-02T13:00:11.530Z,42.2
2022-09-02T13:03:11.419Z,44.5
2022-09-02T13:06:11.391Z,44.9
2022-09-02T13:09:11.597Z,44.1
2022-09-02T13:12:11.393Z,45.5
2022-09-02T13:15:11.342Z,46.2
2022-09-02T13:18:11.383Z,47
2022-09-02T13:21:11.980Z,47.7
2022-09-02T13:24:13.515Z,47
2022-09-02T13:27:16.333Z,43.4
2022-09-02T13:30:11.490Z,39.7
2022-09-02T13:33:11.471Z,36.7
2022-09-02T13:36:11.371Z,35.7
2022-09-02T13:39:11.763Z,38.5
2022-09-02T13:42:21.755Z,39.9
2022-09-02T13:45:11.605Z,42.7
2022-09-02T13:48:11.743Z,44.4
2022-09-02T13:51:11.399Z,44
2022-09-02T13:54:35.073Z,44.9
2022-09-02T13:57:11.681Z,45.1
2022-09-02T14:00:12.283Z,43.1
2022-09-02T14:03:12.732Z,41.7
2022-09-02T14:06:11.528Z,40.4
2022-09-02T14:09:11.430Z,41.2
2022-09-02T14:12:11.464Z,42.4
2022-09-02T14:15:11.416Z,40.8
2022-09-02T14:18:11.395Z,42.6
2022-09-02T14:21:11.331Z,43.4
2022-09-02T14:24:11.418Z,44
2022-09-02T14:27:11.350Z,44.1
2022-09-02T14:30:11.825Z,44.5
2022-09-02T14:33:11.381Z,44.9
2022-09-02T14:36:11.444Z,45.2
2022-09-02T14:39:11.429Z,45.4
2022-09-02T14:42:11.357Z,45.5
2022-09-02T14:45:11.381Z,45.5
2022-09-02T14:48:11.398Z,45.2
2022-09-02T14:51:13.842Z,44.5
2022-09-02T14:54:11.397Z,43.7
2022-09-02T14:57:11.408Z,44.1
2022-09-02T15:00:11.970Z,42.9
2022-09-02T15:03:12.530Z,43.4
2022-09-02T15:06:17.449Z,43.5
2022-09-02T15:09:12.990Z,42.5
2022-09-02T15:12:13.927Z,42.5
2022-09-02T15:15:11.376Z,38.9
2022-09-02T15:18:15.499Z,37.5
2022-09-02T15:21:12.035Z,38.9
2022-09-02T15:24:11.479Z,39
2022-09-02T15:27:11.365Z,38.6
2022-09-02T15:30:11.641Z,39.1
2022-09-02T15:33:18.818Z,39.4
2022-09-02T15:36:11.386Z,39.5
2022-09-02T15:39:11.473Z,39.5
2022-09-02T15:42:11.383Z,39.4
2022-09-02T15:45:11.376Z,39.2
2022-09-02T15:48:11.376Z,38.9
2022-09-02T15:54:11.362Z,38.2
2022-09-02T15:57:11.501Z,37.5
2022-09-02T16:00:17.340Z,37.6
2022-09-02T16:03:12.008Z,37.5
2022-09-02T16:06:11.413Z,37.2
2022-09-02T16:09:11.346Z,36.6
2022-09-02T16:12:11.461Z,36.5
2022-09-02T16:15:11.472Z,36.2
2022-09-02T16:18:11.394Z,36
2022-09-02T16:21:11.387Z,35.7
2022-09-02T16:24:11.403Z,35.4
2022-09-02T16:27:11.417Z,35.1
2022-09-02T16:30:13.168Z,34.9
2022-09-02T16:33:13.347Z,34.4
2022-09-02T16:36:11.387Z,34
2022-09-02T16:39:11.379Z,33.2
2022-09-02T16:42:11.383Z,32.6
2022-09-02T16:45:11.436Z,32.6
2022-09-02T16:48:11.326Z,32.4
2022-09-02T16:51:11.459Z,32
2022-09-02T16:54:21.406Z,31.8
2022-09-02T16:57:11.396Z,31.2
2022-09-02T17:00:11.480Z,30.9
2022-09-02T17:03:11.422Z,30.4
2022-09-02T17:06:11.857Z,29.5
2022-09-02T17:09:11.401Z,27.1
2022-09-02T17:12:11.360Z,25.1
2022-09-02T17:15:11.446Z,24
2022-09-02T17:18:11.372Z,23.1
2022-09-02T17:21:11.381Z,22.6
2022-09-02T17:24:11.467Z,22.1
2022-09-02T17:27:11.569Z,21.8
2022-09-02T17:30:11.416Z,21.5
2022-09-02T17:33:11.362Z,21.2
2022-09-02T17:36:11.386Z,21
2022-09-02T17:39:11.391Z,20.9
2022-09-02T17:42:12.882Z,20.6
2022-09-02T17:45:11.417Z,20.5
2022-09-02T17:51:14.305Z,20.1
2022-09-02T17:54:11.821Z,19.9
2022-09-02T17:57:11.334Z,19.8
2022-09-02T18:00:11.424Z,19.5
2022-09-02T18:03:24.275Z,19.4
2022-09-02T18:06:11.494Z,19.3
2022-09-02T18:09:16.399Z,19
2022-09-02T18:12:11.319Z,18.9
2022-09-02T18:15:11.319Z,18.8
2022-09-02T18:18:11.780Z,18.6
2022-09-02T18:21:11.356Z,18.5
2022-09-02T18:24:11.367Z,18.5
2022-09-02T18:27:12.167Z,18.4
2022-09-02T18:30:11.350Z,18.3
2022-09-02T18:33:13.850Z,18.1
2022-09-02T18:36:11.328Z,18.1
2022-09-02T18:39:11.330Z,18
2022-09-02T18:42:11.435Z,17.9
2022-09-02T18:45:11.403Z,17.8
2022-09-02T18:48:11.310Z,17.6
2022-09-02T18:51:12.135Z,17.5
2022-09-02T18:54:11.301Z,17.5
2022-09-02T18:57:11.320Z,17.4
2022-09-02T19:00:11.334Z,17.4
2022-09-02T19:03:11.349Z,17.2
2022-09-02T19:06:11.343Z,17.1
2022-09-02T19:09:11.346Z,17.1
2022-09-02T19:12:12.839Z,17
2022-09-02T19:15:13.035Z,16.9
2022-09-02T19:18:11.437Z,16.9
2022-09-02T19:21:11.360Z,16.8
2022-09-02T19:24:11.766Z,16.8
2022-09-02T19:27:11.286Z,16.9
2022-09-02T19:30:11.356Z,16.9
2022-09-02T19:33:11.299Z,17
2022-09-02T19:36:11.378Z,17
2022-09-02T19:39:11.390Z,17.1
2022-09-02T19:42:11.322Z,17.1
2022-09-02T19:45:16.696Z,17.2
2022-09-02T19:48:20.332Z,17.2
2022-09-02T19:51:11.352Z,17.2
2022-09-02T19:54:11.403Z,17.1
2022-09-02T19:57:11.362Z,17.1
2022-09-02T20:00:11.394Z,17
2022-09-02T20:03:13.927Z,17
2022-09-02T20:06:11.360Z,16.9
2022-09-02T20:09:14.815Z,16.8
2022-09-02T20:12:11.329Z,16.5
2022-09-02T20:15:11.350Z,16.3
2022-09-02T20:18:11.327Z,16
2022-09-02T20:21:11.569Z,15.9
2022-09-02T20:24:11.355Z,15.6
2022-09-02T20:27:11.337Z,15.5
2022-09-02T20:30:11.349Z,15.4
2022-09-02T20:33:11.362Z,15.4
2022-09-02T20:36:11.397Z,15.4
2022-09-02T20:39:11.322Z,15.4
2022-09-02T20:42:11.293Z,15.4
2022-09-02T20:45:11.318Z,15.4
2022-09-02T20:48:11.260Z,15.5
2022-09-02T20:51:12.479Z,15.5
2022-09-02T20:54:12.394Z,15.5
2022-09-02T20:57:11.317Z,15.5
2022-09-02T21:00:11.461Z,15.5
2022-09-02T21:03:11.333Z,15.5
2022-09-02T21:06:11.340Z,15.5
2022-09-02T21:09:12.979Z,15.5
2022-09-02T21:12:11.351Z,15.5
2022-09-02T21:15:11.377Z,15.4
2022-09-02T21:18:11.331Z,15.3
2022-09-02T21:21:11.368Z,15.3
2022-09-02T21:24:12.308Z,15.3
2022-09-02T21:27:12.020Z,15.3
2022-09-02T21:30:13.992Z,15.4
2022-09-02T21:33:11.402Z,15.4
2022-09-02T21:36:11.345Z,15.4
2022-09-02T21:39:11.885Z,15.5
2022-09-02T21:42:11.347Z,15.5
2022-09-02T21:45:11.847Z,15.5
2022-09-02T21:48:11.299Z,15.6
2022-09-02T21:51:11.286Z,15.6
2022-09-02T21:54:11.341Z,15.6
2022-09-02T21:57:11.288Z,15.6
2022-09-02T22:00:11.626Z,15.6
2022-09-02T22:03:11.323Z,15.5
2022-09-02T22:06:12.922Z,15.5
2022-09-02T22:09:11.261Z,15.5
2022-09-02T22:12:13.538Z,15.5
2022-09-02T22:15:11.273Z,15.4
2022-09-02T22:18:11.342Z,15.4
2022-09-02T22:21:11.333Z,15.4
2022-09-02T22:24:11.344Z,15.3
2022-09-02T22:27:11.323Z,15.1
2022-09-02T22:30:11.318Z,15
2022-09-02T22:33:11.798Z,15
2022-09-02T22:36:11.372Z,15
2022-09-02T22:39:16.877Z,15
2022-09-02T22:42:11.313Z,15
2022-09-02T22:45:11.379Z,14.9
2022-09-02T22:48:11.328Z,14.9
2022-09-02T22:51:13.206Z,14.7
2022-09-02T22:54:12.656Z,14.7
2022-09-02T22:57:11.336Z,14.6
2022-09-02T23:00:13.250Z,14.5
2022-09-02T23:03:11.838Z,14.5
2022-09-02T23:06:11.364Z,14.5
2022-09-02T23:09:11.581Z,14.4
2022-09-02T23:12:11.356Z,14.3
2022-09-02T23:15:11.382Z,14.3
2022-09-02T23:18:11.377Z,14
2022-09-02T23:21:11.372Z,13.9
2022-09-02T23:24:11.347Z,13.6
2022-09-02T23:27:11.329Z,13.4
2022-09-02T23:30:16.980Z,13.1
2022-09-02T23:33:11.396Z,13
2022-09-02T23:36:11.393Z,13
2022-09-02T23:39:11.408Z,13
2022-09-02T23:42:11.363Z,13.1
2022-09-02T23:45:16.766Z,13.4
2022-09-02T23:48:11.351Z,13.6
2022-09-02T23:51:11.364Z,13.8
2022-09-02T23:54:11.406Z,13.8
2022-09-02T23:57:11.331Z,13.9
